createdAt,value
2018-06-23T00:00:23.555Z,18.30
2018-06-23T00:02:52.298Z,15.40
2018-06-23T00:05:20.872Z,14.10
2018-06-23T00:07:49.365Z,23.17
2018-06-23T00:10:17.809Z,20.83
2018-06-23T00:12:46.339Z,22.63
2018-06-23T00:15:14.774Z,16.87
2018-06-23T00:17:43.233Z,17.83
2018-06-23T00:20:11.758Z,21.87
2018-06-23T00:22:40.347Z,19.70
2018-06-23T00:25:08.964Z,18.43
2018-06-23T00:27:37.421Z,18.90
2018-06-23T00:30:05.994Z,17.40
2018-06-23T00:32:34.120Z,16.33
2018-06-23T00:35:02.555Z,18.17
2018-06-23T00:37:31.138Z,16.17
2018-06-23T00:39:59.598Z,20.60
2018-06-23T00:42:28.040Z,20.10
2018-06-23T00:44:56.472Z,14.63
2018-06-23T00:47:24.931Z,23.40
2018-06-23T00:49:53.449Z,15.83
2018-06-23T00:52:21.886Z,18.20
2018-06-23T00:54:50.331Z,22.20
2018-06-23T00:57:18.761Z,22.10
2018-06-23T00:59:47.259Z,17.90
2018-06-23T01:02:15.748Z,18.10
2018-06-23T01:04:44.211Z,18.60
2018-06-23T01:07:12.715Z,15.50
2018-06-23T01:09:41.169Z,16.30
2018-06-23T01:12:10.801Z,21.70
2018-06-23T01:14:39.215Z,15.37
2018-06-23T01:17:09.440Z,20.50
2018-06-23T01:19:38.081Z,20.33
2018-06-23T01:22:06.519Z,16.67
2018-06-23T01:24:35.000Z,13.97
2018-06-23T01:27:03.487Z,13.57
2018-06-23T01:29:32.049Z,20.37
2018-06-23T01:32:00.477Z,24.27
2018-06-23T01:34:28.913Z,18.37
2018-06-23T01:36:57.477Z,16.53
2018-06-23T01:39:26.057Z,24.00
2018-06-23T01:41:54.625Z,24.13
2018-06-23T01:44:22.892Z,18.07
2018-06-23T01:46:51.395Z,18.93
2018-06-23T01:49:19.833Z,17.33
2018-06-23T01:51:48.283Z,16.87
2018-06-23T01:54:16.745Z,16.03
2018-06-23T01:56:44.981Z,21.97
2018-06-23T01:59:13.400Z,18.23
2018-06-23T02:01:41.837Z,14.97
2018-06-23T02:04:10.386Z,15.20
2018-06-23T02:06:38.942Z,13.17
2018-06-23T02:09:09.490Z,14.33
2018-06-23T02:11:37.943Z,19.67
2018-06-23T02:14:11.722Z,16.03
2018-06-23T02:16:45.454Z,16.30
2018-06-23T02:19:19.240Z,17.13
2018-06-23T02:21:53.209Z,19.03
2018-06-23T02:24:26.972Z,17.30
2018-06-23T02:27:00.809Z,21.60
2018-06-23T02:29:34.534Z,20.37
2018-06-23T02:32:08.334Z,18.93
2018-06-23T02:34:42.113Z,14.80
2018-06-23T02:37:10.551Z,16.23
2018-06-23T02:39:39.062Z,19.07
2018-06-23T02:42:07.540Z,19.27
2018-06-23T02:44:36.066Z,14.63
2018-06-23T02:47:04.559Z,22.03
2018-06-23T02:49:33.014Z,19.70
2018-06-23T02:52:01.707Z,18.57
2018-06-23T02:54:30.132Z,19.27
2018-06-23T02:56:58.613Z,20.77
2018-06-23T02:59:27.148Z,19.40
2018-06-23T03:01:55.954Z,20.87
2018-06-23T03:04:24.571Z,18.13
2018-06-23T03:06:53.013Z,20.00
2018-06-23T03:09:21.472Z,19.37
2018-06-23T03:11:49.938Z,17.67
2018-06-23T03:14:18.373Z,17.87
2018-06-23T03:16:47.224Z,14.60
2018-06-23T03:19:15.674Z,13.13
2018-06-23T03:21:44.263Z,18.67
2018-06-23T03:24:12.811Z,13.90
2018-06-23T03:26:41.274Z,19.37
2018-06-23T03:29:09.815Z,18.27
2018-06-23T03:31:38.259Z,19.33
2018-06-23T03:34:06.976Z,18.20
2018-06-23T03:36:36.072Z,24.20
2018-06-23T03:39:07.565Z,17.27
2018-06-23T03:41:36.112Z,16.30
2018-06-23T03:44:04.612Z,17.63
2018-06-23T03:46:33.087Z,19.57
2018-06-23T03:49:01.520Z,15.73
2018-06-23T03:51:30.661Z,22.40
2018-06-23T03:53:59.172Z,22.17
2018-06-23T03:56:27.597Z,22.47
2018-06-23T03:58:56.018Z,17.87
2018-06-23T04:01:24.475Z,20.67
2018-06-23T04:03:52.915Z,24.10
2018-06-23T04:06:21.464Z,22.40
2018-06-23T04:08:49.946Z,19.73
2018-06-23T04:11:18.506Z,21.03
2018-06-23T04:13:47.051Z,18.60
2018-06-23T04:16:15.520Z,23.47
2018-06-23T04:18:50.215Z,15.33
2018-06-23T04:21:18.648Z,17.70
2018-06-23T04:23:47.081Z,18.50
2018-06-23T04:26:15.518Z,20.07
2018-06-23T04:28:43.983Z,15.33
2018-06-23T04:31:12.417Z,17.83
2018-06-23T04:33:40.848Z,19.00
2018-06-23T04:36:09.318Z,17.67
2018-06-23T04:38:38.214Z,16.27
2018-06-23T04:41:06.861Z,25.57
2018-06-23T04:43:35.450Z,18.23
2018-06-23T04:46:03.827Z,16.00
2018-06-23T04:48:32.280Z,17.63
2018-06-23T04:51:00.844Z,20.00
2018-06-23T04:53:29.585Z,14.40
2018-06-23T04:55:58.281Z,18.97
2018-06-23T04:58:26.723Z,19.00
2018-06-23T05:00:55.420Z,18.27
2018-06-23T05:03:24.057Z,15.97
2018-06-23T05:05:52.488Z,16.37
2018-06-23T05:08:21.786Z,18.47
2018-06-23T05:10:50.252Z,16.77
2018-06-23T05:13:18.842Z,17.70
2018-06-23T05:15:47.264Z,15.53
2018-06-23T05:18:15.727Z,19.03
2018-06-23T05:20:44.659Z,16.30
2018-06-23T05:23:13.199Z,18.00
2018-06-23T05:25:41.693Z,15.70
2018-06-23T05:28:10.561Z,14.63
2018-06-23T05:30:38.995Z,21.17
2018-06-23T05:33:07.548Z,14.57
2018-06-23T05:35:36.270Z,23.33
2018-06-23T05:38:04.772Z,16.07
2018-06-23T05:40:33.202Z,20.97
2018-06-23T05:43:01.694Z,14.90
2018-06-23T05:45:30.423Z,19.13
2018-06-23T05:48:00.391Z,19.53
2018-06-23T05:50:28.851Z,16.17
2018-06-23T05:52:57.166Z,18.73
2018-06-23T05:55:25.600Z,12.90
2018-06-23T05:57:54.061Z,14.60
2018-06-23T06:00:22.495Z,19.33
2018-06-23T06:02:50.969Z,15.07
2018-06-23T06:05:19.170Z,18.40
2018-06-23T06:07:47.750Z,22.80
2018-06-23T06:10:16.178Z,18.20
2018-06-23T06:12:44.680Z,16.33
2018-06-23T06:15:12.804Z,19.70
2018-06-23T06:17:41.769Z,17.53
2018-06-23T06:20:12.013Z,14.93
2018-06-23T06:22:44.550Z,16.77
2018-06-23T06:25:14.010Z,18.43
2018-06-23T06:27:42.484Z,16.57
2018-06-23T06:30:11.703Z,11.33
2018-06-23T06:32:40.249Z,16.77
2018-06-23T06:35:08.812Z,14.23
2018-06-23T06:37:37.254Z,15.20
2018-06-23T06:40:06.564Z,13.97
2018-06-23T06:42:35.095Z,19.13
2018-06-23T06:45:03.604Z,14.97
2018-06-23T06:47:32.220Z,17.20
2018-06-23T06:50:00.716Z,18.70
2018-06-23T06:52:29.184Z,19.07
2018-06-23T06:54:58.028Z,15.53
2018-06-23T06:57:26.634Z,17.37
2018-06-23T06:59:55.077Z,14.07
2018-06-23T07:02:23.570Z,16.40
2018-06-23T07:04:52.138Z,16.67
2018-06-23T07:07:20.596Z,14.20
2018-06-23T07:09:49.051Z,11.63
2018-06-23T07:12:17.589Z,10.50
2018-06-23T07:14:46.139Z,11.57
2018-06-23T07:17:14.594Z,10.40
2018-06-23T07:19:43.082Z,12.43
2018-06-23T07:22:11.554Z,12.47
2018-06-23T07:24:40.157Z,18.93
2018-06-23T07:27:08.606Z,11.53
2018-06-23T07:29:37.341Z,10.13
2018-06-23T07:32:05.843Z,10.70
2018-06-23T07:34:34.353Z,9.83
2018-06-23T07:37:02.766Z,8.33
2018-06-23T07:39:31.204Z,9.47
2018-06-23T07:41:59.677Z,9.63
2018-06-23T07:44:28.254Z,9.53
2018-06-23T07:46:56.727Z,9.20
2018-06-23T07:49:25.204Z,10.43
2018-06-23T07:51:53.340Z,8.37
2018-06-23T07:54:21.874Z,11.07
2018-06-23T07:56:50.436Z,9.13
2018-06-23T07:59:18.913Z,9.60
2018-06-23T08:01:47.373Z,11.13
2018-06-23T08:04:15.843Z,5.83
2018-06-23T08:06:44.411Z,12.17
2018-06-23T08:09:12.950Z,9.30
2018-06-23T08:11:41.560Z,7.63
2018-06-23T08:14:10.078Z,10.93
2018-06-23T08:16:38.627Z,8.33
2018-06-23T08:19:07.093Z,7.80
2018-06-23T08:21:35.819Z,7.77
2018-06-23T08:24:04.388Z,8.00
2018-06-23T08:26:33.048Z,9.33
2018-06-23T08:29:01.448Z,7.83
2018-06-23T08:31:29.579Z,7.90
2018-06-23T08:33:58.145Z,8.40
2018-06-23T08:36:26.729Z,12.30
2018-06-23T08:38:55.200Z,8.47
2018-06-23T08:41:24.055Z,6.93
2018-06-23T08:43:52.523Z,7.70
2018-06-23T08:46:21.744Z,9.17
2018-06-23T08:48:50.228Z,5.87
2018-06-23T08:51:18.725Z,12.97
2018-06-23T08:53:47.184Z,6.73
2018-06-23T08:56:15.647Z,13.40
2018-06-23T08:58:44.100Z,11.20
2018-06-23T09:01:12.581Z,9.10
2018-06-23T09:03:41.030Z,6.47
2018-06-23T09:06:09.559Z,11.90
2018-06-23T09:08:38.028Z,7.23
2018-06-23T09:11:06.538Z,7.23
2018-06-23T09:13:35.123Z,7.73
2018-06-23T09:16:04.152Z,6.03
2018-06-23T09:18:32.738Z,5.47
2018-06-23T09:21:01.292Z,7.77
2018-06-23T09:23:29.735Z,8.50
2018-06-23T09:25:58.363Z,9.37
2018-06-23T09:28:26.767Z,7.93
2018-06-23T09:30:55.329Z,7.17
2018-06-23T09:33:23.802Z,10.37
2018-06-23T09:35:52.268Z,8.43
2018-06-23T09:38:20.799Z,10.27
2018-06-23T09:40:49.363Z,10.40
2018-06-23T09:43:17.811Z,9.97
2018-06-23T09:45:46.335Z,8.40
2018-06-23T09:48:14.591Z,8.33
2018-06-23T09:50:43.064Z,10.10
2018-06-23T09:53:11.848Z,8.17
2018-06-23T09:55:40.818Z,6.47
2018-06-23T09:58:09.253Z,9.03
2018-06-23T10:00:37.877Z,9.83
2018-06-23T10:03:06.568Z,8.47
2018-06-23T10:05:35.010Z,6.50
2018-06-23T10:08:03.473Z,8.47
2018-06-23T10:10:31.885Z,7.90
2018-06-23T10:13:00.655Z,9.23
2018-06-23T10:15:33.138Z,9.57
2018-06-23T10:18:01.552Z,10.57
2018-06-23T10:20:30.095Z,7.17
2018-06-23T10:22:58.613Z,9.83
2018-06-23T10:25:27.145Z,9.43
2018-06-23T10:27:55.703Z,9.80
2018-06-23T10:30:24.263Z,7.57
2018-06-23T10:32:52.813Z,6.83
2018-06-23T10:35:21.237Z,8.47
2018-06-23T10:37:49.925Z,6.17
2018-06-23T10:40:18.372Z,9.00
2018-06-23T10:42:46.822Z,6.40
2018-06-23T10:45:15.273Z,6.77
2018-06-23T10:47:43.750Z,5.73
2018-06-23T10:50:12.206Z,7.17
2018-06-23T10:52:40.635Z,7.40
2018-06-23T10:55:09.154Z,9.27
2018-06-23T10:57:37.296Z,7.77
2018-06-23T11:00:05.996Z,5.97
2018-06-23T11:02:34.489Z,6.93
2018-06-23T11:05:03.006Z,8.47
2018-06-23T11:07:31.555Z,7.83
2018-06-23T11:10:00.019Z,7.87
2018-06-23T11:12:28.522Z,4.80
2018-06-23T11:14:57.039Z,10.97
2018-06-23T11:17:25.513Z,8.33
2018-06-23T11:19:53.994Z,8.20
2018-06-23T11:22:22.441Z,8.27
2018-06-23T11:24:50.892Z,6.57
2018-06-23T11:27:19.345Z,7.53
2018-06-23T11:29:47.815Z,10.43
2018-06-23T11:32:16.354Z,7.00
2018-06-23T11:34:44.795Z,8.37
2018-06-23T11:37:13.395Z,7.37
2018-06-23T11:39:42.037Z,13.10
2018-06-23T11:42:10.644Z,8.17
2018-06-23T11:44:39.443Z,8.17
2018-06-23T11:47:08.040Z,7.43
2018-06-23T11:49:36.589Z,8.17
2018-06-23T11:52:05.247Z,7.43
2018-06-23T11:54:33.717Z,9.40
2018-06-23T11:57:02.229Z,10.87
2018-06-23T11:59:30.874Z,11.60
2018-06-23T12:01:59.385Z,9.27
2018-06-23T12:04:28.110Z,10.23
2018-06-23T12:06:56.618Z,7.50
2018-06-23T12:09:25.483Z,7.47
2018-06-23T12:11:54.381Z,8.17
2018-06-23T12:14:22.818Z,11.20
2018-06-23T12:16:51.379Z,8.97
2018-06-23T12:19:19.910Z,8.77
2018-06-23T12:21:48.384Z,9.33
2018-06-23T12:24:16.872Z,8.77
2018-06-23T12:26:45.353Z,11.93
2018-06-23T12:29:13.620Z,8.27
2018-06-23T12:31:42.102Z,6.87
2018-06-23T12:34:10.558Z,10.20
2018-06-23T12:36:39.018Z,9.30
2018-06-23T12:39:09.416Z,7.83
2018-06-23T12:41:37.943Z,6.93
2018-06-23T12:44:06.794Z,5.97
2018-06-23T12:46:35.274Z,7.23
2018-06-23T12:49:04.060Z,10.93
2018-06-23T12:51:32.768Z,6.23
2018-06-23T12:54:01.284Z,6.43
2018-06-23T12:56:29.742Z,6.30
2018-06-23T12:58:58.319Z,5.37
2018-06-23T13:01:26.846Z,7.33
2018-06-23T13:03:55.332Z,7.93
2018-06-23T13:06:24.067Z,5.27
2018-06-23T13:08:52.605Z,7.27
2018-06-23T13:11:20.774Z,5.20
2018-06-23T13:13:49.338Z,9.43
2018-06-23T13:16:17.918Z,6.67
2018-06-23T13:18:46.532Z,7.57
2018-06-23T13:21:14.701Z,5.07
2018-06-23T13:23:43.169Z,7.80
2018-06-23T13:26:11.675Z,9.07
2018-06-23T13:28:40.156Z,5.67
2018-06-23T13:31:08.657Z,6.43
2018-06-23T13:33:37.110Z,4.40
2018-06-23T13:36:05.647Z,5.80
2018-06-23T13:38:34.203Z,6.87
2018-06-23T13:41:05.077Z,8.27
2018-06-23T13:43:34.028Z,6.37
2018-06-23T13:46:02.501Z,5.20
2018-06-23T13:48:30.990Z,4.63
2018-06-23T13:50:59.487Z,5.67
2018-06-23T13:53:28.073Z,6.30
2018-06-23T13:55:56.672Z,4.60
2018-06-23T13:58:25.134Z,4.33
2018-06-23T14:00:53.641Z,4.50
2018-06-23T14:03:22.292Z,3.60
2018-06-23T14:05:50.711Z,5.73
2018-06-23T14:08:19.154Z,6.73
2018-06-23T14:10:47.635Z,4.03
2018-06-23T14:13:16.334Z,5.40
2018-06-23T14:15:44.484Z,6.40
2018-06-23T14:18:12.973Z,5.17
2018-06-23T14:20:41.402Z,8.77
2018-06-23T14:23:09.877Z,4.53
2018-06-23T14:25:38.389Z,4.93
2018-06-23T14:28:06.934Z,4.17
2018-06-23T14:30:35.497Z,4.80
2018-06-23T14:33:03.984Z,5.87
2018-06-23T14:35:32.427Z,7.67
2018-06-23T14:38:01.015Z,7.50
2018-06-23T14:40:29.538Z,5.23
2018-06-23T14:42:58.110Z,3.50
2018-06-23T14:45:26.556Z,5.63
2018-06-23T14:47:55.083Z,5.50
2018-06-23T14:50:23.557Z,6.10
2018-06-23T14:52:51.701Z,4.23
2018-06-23T14:55:20.241Z,6.50
2018-06-23T14:57:48.995Z,6.30
2018-06-23T15:00:17.576Z,5.40
2018-06-23T15:02:46.042Z,5.30
2018-06-23T15:05:14.491Z,4.60
2018-06-23T15:07:42.937Z,5.93
2018-06-23T15:10:22.650Z,6.13
2018-06-23T15:13:02.349Z,2.90
2018-06-23T15:15:30.841Z,4.40
2018-06-23T15:18:00.237Z,5.37
2018-06-23T15:20:28.682Z,5.43
2018-06-23T15:22:57.149Z,6.40
2018-06-23T15:25:25.309Z,7.10
2018-06-23T15:27:53.811Z,5.83
2018-06-23T15:30:22.313Z,4.17
2018-06-23T15:32:50.762Z,7.03
2018-06-23T15:35:19.256Z,4.47
2018-06-23T15:37:47.390Z,4.77
2018-06-23T15:40:15.928Z,6.57
2018-06-23T15:42:44.410Z,6.33
2018-06-23T15:45:12.877Z,4.77
2018-06-23T15:47:41.031Z,4.53
2018-06-23T15:50:09.542Z,6.67
2018-06-23T15:52:38.352Z,5.40
2018-06-23T15:55:07.077Z,5.37
2018-06-23T15:57:35.711Z,6.80
2018-06-23T16:00:04.428Z,3.20
2018-06-23T16:02:32.887Z,7.37
2018-06-23T16:05:01.461Z,6.53
2018-06-23T16:07:29.918Z,7.73
2018-06-23T16:09:58.663Z,6.07
2018-06-23T16:12:27.110Z,7.37
2018-06-23T16:14:55.720Z,6.77
2018-06-23T16:17:24.154Z,5.17
2018-06-23T16:19:52.658Z,4.67
2018-06-23T16:22:21.139Z,7.07
2018-06-23T16:24:49.640Z,5.47
2018-06-23T16:27:18.070Z,3.90
2018-06-23T16:29:46.827Z,9.37
2018-06-23T16:32:15.276Z,7.13
2018-06-23T16:34:43.787Z,8.57
2018-06-23T16:37:12.216Z,6.27
2018-06-23T16:39:40.643Z,6.97
2018-06-23T16:42:09.101Z,5.97
2018-06-23T16:44:37.690Z,6.93
2018-06-23T16:47:06.635Z,5.67
2018-06-23T16:49:35.169Z,4.80
2018-06-23T16:52:03.610Z,3.53
2018-06-23T16:54:32.050Z,7.27
2018-06-23T16:57:00.477Z,5.10
2018-06-23T16:59:28.945Z,4.80
2018-06-23T17:01:57.578Z,6.00
2018-06-23T17:04:25.788Z,6.07
2018-06-23T17:06:54.262Z,4.67
2018-06-23T17:09:22.825Z,5.70
2018-06-23T17:11:51.361Z,5.27
2018-06-23T17:14:19.945Z,8.47
2018-06-23T17:16:48.392Z,4.07
2018-06-23T17:19:16.885Z,6.83
2018-06-23T17:21:45.698Z,4.33
2018-06-23T17:24:14.120Z,8.13
2018-06-23T17:26:42.543Z,5.73
2018-06-23T17:29:10.993Z,5.70
2018-06-23T17:31:39.468Z,7.83
2018-06-23T17:34:07.937Z,5.57
2018-06-23T17:36:36.459Z,7.30
2018-06-23T17:39:07.523Z,5.00
2018-06-23T17:41:35.991Z,5.00
2018-06-23T17:44:04.565Z,8.73
2018-06-23T17:46:33.164Z,4.17
2018-06-23T17:49:01.679Z,5.13
2018-06-23T17:51:30.200Z,7.50
2018-06-23T17:53:58.748Z,6.87
2018-06-23T17:56:27.220Z,5.30
2018-06-23T17:58:55.760Z,5.77
2018-06-23T18:01:24.198Z,3.27
2018-06-23T18:03:52.707Z,4.77
2018-06-23T18:06:21.218Z,8.07
2018-06-23T18:08:49.732Z,8.63
2018-06-23T18:11:18.275Z,4.27
2018-06-23T18:13:46.721Z,5.63
2018-06-23T18:16:15.210Z,4.93
2018-06-23T18:18:43.706Z,4.33
2018-06-23T18:21:12.312Z,5.97
2018-06-23T18:23:40.869Z,6.33
2018-06-23T18:26:09.370Z,8.73
2018-06-23T18:28:37.944Z,9.27
2018-06-23T18:31:06.438Z,6.00
2018-06-23T18:33:35.330Z,6.37
2018-06-23T18:36:03.832Z,6.47
2018-06-23T18:38:32.390Z,6.07
2018-06-23T18:41:00.902Z,8.90
2018-06-23T18:43:29.368Z,3.97
2018-06-23T18:45:58.040Z,7.30
2018-06-23T18:48:26.544Z,6.47
2018-06-23T18:50:54.990Z,8.13
2018-06-23T18:53:23.490Z,7.83
2018-06-23T18:55:52.086Z,6.37
2018-06-23T18:58:20.644Z,5.37
2018-06-23T19:00:49.117Z,5.20
2018-06-23T19:03:17.566Z,4.83
2018-06-23T19:05:46.152Z,6.30
2018-06-23T19:08:14.666Z,4.67
2018-06-23T19:10:43.244Z,6.63
2018-06-23T19:13:11.818Z,8.00
2018-06-23T19:15:40.280Z,6.60
2018-06-23T19:18:08.805Z,6.33
2018-06-23T19:20:37.288Z,4.90
2018-06-23T19:23:05.774Z,3.83
2018-06-23T19:25:34.387Z,6.83
2018-06-23T19:28:02.961Z,6.53
2018-06-23T19:30:31.501Z,4.47
2018-06-23T19:33:00.262Z,6.50
2018-06-23T19:35:28.814Z,3.63
2018-06-23T19:37:57.427Z,3.27
2018-06-23T19:40:25.924Z,6.13
2018-06-23T19:42:54.402Z,3.70
2018-06-23T19:45:22.896Z,7.50
2018-06-23T19:47:51.480Z,5.50
2018-06-23T19:50:19.963Z,3.57
2018-06-23T19:52:48.418Z,5.80
2018-06-23T19:55:17.000Z,3.77
2018-06-23T19:57:45.486Z,5.13
2018-06-23T20:00:14.003Z,8.47
2018-06-23T20:02:42.500Z,5.17
2018-06-23T20:05:10.982Z,4.47
2018-06-23T20:07:39.650Z,3.77
2018-06-23T20:10:08.284Z,4.00
2018-06-23T20:12:36.766Z,4.53
2018-06-23T20:15:05.353Z,5.43
2018-06-23T20:17:34.145Z,5.17
2018-06-23T20:20:02.615Z,5.63
2018-06-23T20:22:31.193Z,5.33
2018-06-23T20:24:59.788Z,6.80
2018-06-23T20:27:28.355Z,6.33
2018-06-23T20:29:57.347Z,5.17
2018-06-23T20:32:25.923Z,6.57
2018-06-23T20:34:54.385Z,6.30
2018-06-23T20:37:22.840Z,6.30
2018-06-23T20:39:51.298Z,4.93
2018-06-23T20:42:20.015Z,8.57
2018-06-23T20:44:48.565Z,8.80
2018-06-23T20:47:17.089Z,6.37
2018-06-23T20:49:45.639Z,8.63
2018-06-23T20:52:14.075Z,5.47
2018-06-23T20:54:42.668Z,7.03
2018-06-23T20:57:11.147Z,7.87
2018-06-23T20:59:39.934Z,7.13
2018-06-23T21:02:08.418Z,7.10
2018-06-23T21:04:36.975Z,7.83
2018-06-23T21:07:05.559Z,5.77
2018-06-23T21:09:33.795Z,8.37
2018-06-23T21:12:02.469Z,6.73
2018-06-23T21:14:31.014Z,8.10
2018-06-23T21:17:00.102Z,5.27
2018-06-23T21:19:28.624Z,6.13
2018-06-23T21:21:57.216Z,11.03
2018-06-23T21:24:25.859Z,6.23
2018-06-23T21:26:54.001Z,6.90
2018-06-23T21:29:22.856Z,7.40
2018-06-23T21:31:51.401Z,7.63
2018-06-23T21:34:19.858Z,11.10
2018-06-23T21:36:48.321Z,8.43
2018-06-23T21:39:16.843Z,9.57
2018-06-23T21:41:45.317Z,7.63
2018-06-23T21:44:13.794Z,7.70
2018-06-23T21:46:42.451Z,8.37
2018-06-23T21:49:11.023Z,8.27
2018-06-23T21:51:39.593Z,9.00
2018-06-23T21:54:08.167Z,15.30
2018-06-23T21:56:36.612Z,11.10
2018-06-23T21:59:05.212Z,7.80
2018-06-23T22:01:33.990Z,7.63
2018-06-23T22:04:02.585Z,12.90
2018-06-23T22:06:31.072Z,7.87
2018-06-23T22:08:59.831Z,10.07
2018-06-23T22:11:28.372Z,10.57
2018-06-23T22:13:57.157Z,7.93
2018-06-23T22:16:25.653Z,8.87
2018-06-23T22:18:54.218Z,10.07
2018-06-23T22:21:23.077Z,10.33
2018-06-23T22:23:51.532Z,10.47
2018-06-23T22:26:20.062Z,9.73
2018-06-23T22:28:48.693Z,11.30
2018-06-23T22:31:17.260Z,13.53
2018-06-23T22:33:45.788Z,9.73
2018-06-23T22:36:14.260Z,8.90
2018-06-23T22:38:43.358Z,10.90
2018-06-23T22:41:11.832Z,10.97
2018-06-23T22:43:40.280Z,8.40
2018-06-23T22:46:08.850Z,10.13
2018-06-23T22:48:37.304Z,10.30
2018-06-23T22:51:05.832Z,9.83
2018-06-23T22:53:34.375Z,9.50
2018-06-23T22:56:02.828Z,10.00
2018-06-23T22:58:31.460Z,14.83
2018-06-23T23:00:59.932Z,11.70
2018-06-23T23:03:28.561Z,11.87
2018-06-23T23:05:57.130Z,8.93
2018-06-23T23:08:25.711Z,13.33
2018-06-23T23:10:54.158Z,7.33
2018-06-23T23:13:22.608Z,9.37
2018-06-23T23:15:51.083Z,8.37
2018-06-23T23:18:19.530Z,10.07
2018-06-23T23:20:47.973Z,8.97
2018-06-23T23:23:16.610Z,10.47
2018-06-23T23:25:45.078Z,11.00
2018-06-23T23:28:13.234Z,8.70
2018-06-23T23:30:41.749Z,11.27
2018-06-23T23:33:10.301Z,8.93
2018-06-23T23:35:38.738Z,8.93
2018-06-23T23:38:07.237Z,13.20
2018-06-23T23:40:35.705Z,8.47
2018-06-23T23:43:04.211Z,10.23
2018-06-23T23:45:32.679Z,9.33
2018-06-23T23:48:01.150Z,11.53
2018-06-23T23:50:29.631Z,10.67
2018-06-23T23:52:58.109Z,12.70
2018-06-23T23:55:26.607Z,11.73
2018-06-23T23:57:55.097Z,11.07
